Time;durP1;ratioP1;P1;durP2;ratioP2;P2;SDS_P1;SDS_P2;PMS_P1;PMS_P2;Temp;Humidity;BMP_temperature;BMP_pressure;BME280_temperature;BME280_humidity;BME280_pressure;Samples;Min_cycle;Max_cycle;Signal;HPM_P1;HPM_P2
2022/01/24 00:00:17;;;;;;;7.30;3.80;;;-1.10;98.30;;;;;;4995057;28;20191;-67
2022/01/24 00:02:48;;;;;;;10.68;4.22;;;-1.20;98.30;;;;;;4994887;28;20548;-74
2022/01/24 00:05:18;;;;;;;6.32;3.65;;;-1.20;98.40;;;;;;4994756;28;20696;-67
2022/01/24 00:07:45;;;;;;;6.25;4.60;;;-1.30;98.50;;;;;;4994806;28;20207;-67
2022/01/24 00:10:19;;;;;;;8.88;4.90;;;-1.30;98.40;;;;;;4995113;28;20657;-67
2022/01/24 00:26:41;;;;;;;3.95;2.97;;;-1.30;98.30;;;;;;4996167;28;20269;-67
2022/01/24 00:29:10;;;;;;;7.50;4.47;;;-1.40;98.30;;;;;;4996057;28;20210;-74
2022/01/24 00:31:37;;;;;;;6.20;3.78;;;-1.40;98.30;;;;;;4994239;28;20194;-71
2022/01/24 00:34:10;;;;;;;5.20;3.83;;;-1.40;98.20;;;;;;4994328;28;20274;-74
2022/01/24 00:36:48;;;;;;;11.15;4.45;;;-1.40;98.30;;;;;;4994340;28;20561;-74
2022/01/24 00:39:16;;;;;;;6.03;3.40;;;-1.40;98.20;;;;;;4994407;28;20183;-73
2022/01/24 00:41:54;;;;;;;6.03;4.18;;;-1.40;98.20;;;;;;4994187;28;20176;-68
2022/01/24 00:47:05;;;;;;;7.13;4.68;;;-1.40;98.30;;;;;;4995324;28;20179;-67
2022/01/24 00:54:52;;;;;;;4.45;3.92;;;-1.50;98.40;;;;;;4995929;28;20247;-67
2022/01/24 00:57:20;;;;;;;5.32;3.72;;;-1.50;98.50;;;;;;4993882;28;20281;-68
2022/01/24 00:59:48;;;;;;;7.55;4.50;;;-1.50;98.40;;;;;;4993939;28;20260;-74
2022/01/24 01:02:16;;;;;;;9.68;4.03;;;-1.50;98.60;;;;;;4993049;28;20274;-68
2022/01/24 01:07:38;;;;;;;5.20;3.97;;;-1.60;98.60;;;;;;4995294;28;20206;-74
2022/01/24 01:18:25;;;;;;;8.50;3.95;;;-1.60;98.60;;;;;;4995052;28;20249;-74
2022/01/24 01:23:31;;;;;;;9.43;5.50;;;-1.70;98.90;;;;;;4994780;28;20203;-73
2022/01/24 01:26:04;;;;;;;10.50;5.05;;;-1.70;99.00;;;;;;4977277;28;20599;-67
2022/01/24 01:28:32;;;;;;;11.65;6.22;;;-1.80;99.00;;;;;;4977017;28;20559;-67
2022/01/24 01:31:04;;;;;;;11.65;6.25;;;-1.80;99.10;;;;;;4977149;28;20184;-74
2022/01/24 01:34:35;;;;;;;10.57;5.50;;;-1.80;99.10;;;;;;4977032;28;20211;-67
2022/01/24 01:55:40;;;;;;;7.60;5.25;;;-2.00;99.50;;;;;;4994370;28;20181;-74
2022/01/24 01:58:15;;;;;;;7.50;4.88;;;-1.90;99.60;;;;;;4976322;28;20212;-67
2022/01/24 02:00:55;;;;;;;7.80;5.60;;;-2.00;99.50;;;;;;4977221;28;20556;-74
2022/01/24 02:03:28;;;;;;;11.98;5.90;;;-2.00;99.60;;;;;;4994629;28;20199;-67
2022/01/24 02:05:55;;;;;;;10.32;5.95;;;-2.00;99.70;;;;;;4983795;28;20266;-74
2022/01/24 02:08:35;;;;;;;7.90;5.00;;;-2.00;99.80;;;;;;4992791;28;20208;-73
2022/01/24 02:11:02;;;;;;;8.10;5.15;;;-2.00;99.70;;;;;;4993479;28;20629;-73
2022/01/24 02:13:30;;;;;;;6.13;4.15;;;-2.00;99.80;;;;;;4995573;28;20208;-67
2022/01/24 02:19:04;;;;;;;8.55;5.50;;;-2.00;99.80;;;;;;4998493;28;20615;-67
2022/01/24 02:21:46;;;;;;;6.25;4.35;;;-2.00;99.70;;;;;;4996698;28;20184;-67
2022/01/24 02:24:15;;;;;;;8.57;4.55;;;-2.00;99.60;;;;;;4996517;28;20215;-74
2022/01/24 02:26:49;;;;;;;9.70;5.28;;;-2.00;99.80;;;;;;4997930;28;20206;-74
2022/01/24 02:29:33;;;;;;;8.10;5.63;;;-2.00;99.70;;;;;;4996738;28;20644;-74
2022/01/24 02:32:02;;;;;;;6.53;4.85;;;-2.00;99.70;;;;;;4996605;28;20172;-74
2022/01/24 02:34:45;;;;;;;8.57;4.90;;;-2.00;99.70;;;;;;4996787;28;20555;-74
2022/01/24 02:37:14;;;;;;;8.43;6.18;;;-2.00;99.70;;;;;;4996448;28;20227;-67
2022/01/24 02:40:07;;;;;;;8.75;5.00;;;-2.00;99.70;;;;;;4996568;28;20219;-73
2022/01/24 02:46:06;;;;;;;12.15;5.72;;;-2.00;99.80;;;;;;4997759;28;20603;-73
2022/01/24 02:48:33;;;;;;;9.73;5.32;;;-2.00;99.90;;;;;;4997382;28;20216;-74
2022/01/24 02:51:19;;;;;;;6.53;5.00;;;-2.00;99.90;;;;;;4996564;28;20591;-67
2022/01/24 02:53:47;;;;;;;10.07;4.20;;;-2.00;99.80;;;;;;4996013;28;20231;-75
2022/01/24 02:56:13;;;;;;;6.93;4.43;;;-2.00;99.80;;;;;;4996158;28;20521;-67
2022/01/24 02:58:50;;;;;;;6.47;4.68;;;-2.00;99.70;;;;;;4996053;28;20268;-73
2022/01/24 03:01:18;;;;;;;6.05;3.95;;;-2.00;99.80;;;;;;4996117;28;20172;-67
2022/01/24 03:03:53;;;;;;;4.72;2.58;;;-2.00;99.70;;;;;;4995758;28;20266;-74
2022/01/24 03:06:21;;;;;;;7.30;4.55;;;-2.00;99.70;;;;;;4995680;28;20238;-67
2022/01/24 03:08:47;;;;;;;7.70;5.43;;;-2.00;99.70;;;;;;4995842;28;20681;-74
2022/01/24 03:11:27;;;;;;;7.20;4.47;;;-2.00;99.60;;;;;;4997173;28;20177;-67
2022/01/24 03:13:55;;;;;;;8.43;4.00;;;-2.00;99.60;;;;;;4995581;28;20222;-73
2022/01/24 03:16:22;;;;;;;6.15;3.70;;;-2.00;99.70;;;;;;4995717;28;20657;-67
2022/01/24 03:18:48;;;;;;;5.57;3.88;;;-2.00;99.60;;;;;;4995616;28;20223;-67
2022/01/24 03:21:19;;;;;;;8.75;4.85;;;-2.00;99.80;;;;;;4995713;28;20179;-73
2022/01/24 03:23:46;;;;;;;9.52;4.60;;;-2.10;99.80;;;;;;4994550;28;20227;-67
2022/01/24 03:26:15;;;;;;;5.80;3.65;;;-2.10;99.80;;;;;;4995649;28;20172;-68
2022/01/24 03:28:45;;;;;;;3.92;3.38;;;-2.10;99.80;;;;;;4995995;28;20307;-67
2022/01/24 03:31:16;;;;;;;11.10;5.53;;;-2.10;99.80;;;;;;4995573;28;20176;-67
2022/01/24 03:33:45;;;;;;;8.55;5.22;;;-2.10;99.90;;;;;;4996847;28;20198;-72
2022/01/24 03:36:22;;;;;;;7.47;3.75;;;-2.10;99.80;;;;;;4995482;28;20640;-74
2022/01/24 03:39:10;;;;;;;4.90;3.60;;;-2.10;99.90;;;;;;4995279;28;20728;-73
2022/01/24 03:41:45;;;;;;;7.47;4.97;;;-2.20;99.90;;;;;;4995185;28;20561;-74
2022/01/24 03:44:14;;;;;;;6.55;4.20;;;-2.20;99.90;;;;;;4996415;28;20278;-67
2022/01/24 03:46:59;;;;;;;7.50;5.05;;;-2.20;99.90;;;;;;4995310;28;20176;-73
2022/01/24 03:49:48;;;;;;;7.63;4.00;;;-2.30;99.90;;;;;;4995369;28;20200;-67
2022/01/24 03:52:16;;;;;;;10.07;4.72;;;-2.30;99.90;;;;;;4994997;28;20200;-67
2022/01/24 03:54:45;;;;;;;7.40;5.20;;;-2.40;99.90;;;;;;4995152;28;20184;-67
2022/01/24 03:57:13;;;;;;;8.80;5.65;;;-2.40;99.90;;;;;;4994915;28;20211;-73
2022/01/24 03:59:56;;;;;;;10.65;4.65;;;-2.50;99.90;;;;;;4995090;28;20663;-74
2022/01/24 04:02:27;;;;;;;8.38;5.50;;;-2.50;99.90;;;;;;4994799;28;20257;-73
2022/01/24 04:04:54;;;;;;;9.85;4.60;;;-2.50;99.90;;;;;;4994495;28;20681;-72
2022/01/24 04:07:24;;;;;;;11.18;5.00;;;-2.50;99.90;;;;;;4978490;28;20199;-73
2022/01/24 04:09:51;;;;;;;10.57;6.20;;;-2.60;99.90;;;;;;4995911;28;20184;-68
2022/01/24 04:12:23;;;;;;;7.65;5.47;;;-2.60;99.90;;;;;;4978336;28;20286;-68
2022/01/24 04:15:24;;;;;;;8.73;5.90;;;-2.70;99.90;;;;;;4978540;28;20664;-73
2022/01/24 04:18:10;;;;;;;11.77;5.88;;;-2.70;99.90;;;;;;4978059;28;20204;-67
2022/01/24 04:23:24;;;;;;;11.15;5.32;;;-2.70;99.90;;;;;;4995890;28;20223;-68
2022/01/24 04:25:51;;;;;;;8.20;4.53;;;-2.70;99.90;;;;;;4978171;28;20194;-68
2022/01/24 04:28:23;;;;;;;9.30;5.75;;;-2.70;99.90;;;;;;4978340;28;20212;-73
2022/01/24 04:31:03;;;;;;;7.60;4.53;;;-2.60;99.90;;;;;;4978175;28;20191;-73
2022/01/24 04:33:35;;;;;;;6.72;4.80;;;-2.50;99.90;;;;;;4978010;28;20566;-68
2022/01/24 04:36:01;;;;;;;11.35;5.00;;;-2.50;99.90;;;;;;4977866;28;20569;-67
2022/01/24 04:38:32;;;;;;;6.10;4.32;;;-2.50;99.90;;;;;;4978225;28;20212;-73
2022/01/24 04:41:04;;;;;;;6.93;5.43;;;-2.40;99.90;;;;;;4978087;28;20203;-73
2022/01/24 04:46:11;;;;;;;10.18;5.55;;;-2.40;99.90;;;;;;4995738;28;20541;-73
2022/01/24 04:56:38;;;;;;;8.18;5.00;;;-2.30;99.90;;;;;;4995426;28;20188;-68
2022/01/24 04:59:06;;;;;;;8.55;5.35;;;-2.30;99.90;;;;;;4974185;28;20291;-67
2022/01/24 05:01:34;;;;;;;8.07;4.93;;;-2.30;99.90;;;;;;4958388;28;20207;-68
2022/01/24 05:04:06;;;;;;;10.55;5.43;;;-2.30;99.90;;;;;;4957767;28;20209;-73
2022/01/24 05:06:32;;;;;;;7.35;4.82;;;-2.30;99.90;;;;;;4968781;28;20228;-68
2022/01/24 05:09:01;;;;;;;12.32;6.72;;;-2.20;99.90;;;;;;4974149;28;20213;-68
2022/01/24 05:11:53;;;;;;;9.75;6.32;;;-2.30;99.90;;;;;;4974486;28;20261;-68
2022/01/24 05:25:24;;;;;;;8.45;4.95;;;-2.30;99.90;;;;;;4975081;28;20271;-74
2022/01/24 05:27:53;;;;;;;8.70;5.35;;;-2.40;99.90;;;;;;4973773;28;20684;-73
2022/01/24 05:30:20;;;;;;;9.95;6.25;;;-2.40;99.90;;;;;;4974053;28;20241;-68
2022/01/24 05:32:52;;;;;;;8.45;5.38;;;-2.50;99.90;;;;;;4973337;28;20215;-72
2022/01/24 05:35:24;;;;;;;9.55;5.88;;;-2.50;99.90;;;;;;4992423;28;20227;-69
2022/01/24 05:37:53;;;;;;;11.98;5.28;;;-2.50;99.90;;;;;;4992276;28;20211;-69
2022/01/24 05:40:20;;;;;;;8.23;5.72;;;-2.40;99.90;;;;;;4992732;28;20183;-68
2022/01/24 05:42:47;;;;;;;8.18;5.35;;;-2.10;99.90;;;;;;4991941;28;20346;-68
2022/01/24 05:45:20;;;;;;;9.43;5.40;;;-1.80;99.90;;;;;;4992079;28;20233;-68
2022/01/24 05:47:55;;;;;;;7.80;5.45;;;-1.60;99.90;;;;;;4992524;28;20287;-68
2022/01/24 05:50:23;;;;;;;11.55;5.75;;;-1.40;99.90;;;;;;4993164;28;20187;-68
2022/01/24 05:52:51;;;;;;;12.50;5.50;;;-1.20;99.90;;;;;;4992618;28;20208;-68
2022/01/24 05:55:23;;;;;;;10.15;6.03;;;-1.00;99.90;;;;;;4992824;28;20184;-74
2022/01/24 05:57:53;;;;;;;11.27;6.20;;;-0.80;99.90;;;;;;4992458;28;20712;-67
2022/01/24 06:00:26;;;;;;;10.02;6.53;;;-0.60;99.90;;;;;;4992973;28;20279;-73
2022/01/24 06:02:54;;;;;;;11.52;6.95;;;-0.40;99.90;;;;;;4992054;28;20321;-74
2022/01/24 06:05:20;;;;;;;11.60;8.65;;;-0.30;99.90;;;;;;4990474;28;20275;-74
2022/01/24 06:07:49;;;;;;;292.48;111.78;;;-0.50;99.90;;;;;;5002756;28;20635;-74
2022/01/24 06:10:15;;;;;;;295.98;135.05;;;-0.80;99.90;;;;;;4991216;28;20187;-68
2022/01/24 06:12:43;;;;;;;162.52;90.68;;;-1.00;99.90;;;;;;4992301;28;20250;-73
2022/01/24 06:15:12;;;;;;;148.63;75.97;;;-1.20;99.90;;;;;;4972148;28;20216;-73
2022/01/24 06:17:39;;;;;;;60.55;35.78;;;-1.30;99.90;;;;;;4989399;28;20193;-68
2022/01/24 06:20:07;;;;;;;53.25;41.15;;;-1.50;99.90;;;;;;4997492;28;20188;-68
2022/01/24 06:22:39;;;;;;;34.20;26.58;;;-1.70;99.90;;;;;;4992505;28;20689;-73
2022/01/24 06:25:07;;;;;;;16.58;13.02;;;-2.00;99.90;;;;;;4992949;28;20230;-68
2022/01/24 06:27:37;;;;;;;22.10;13.63;;;-2.20;99.90;;;;;;4992225;28;20231;-73
2022/01/24 06:30:08;;;;;;;19.33;13.48;;;-2.50;99.90;;;;;;4992257;28;20681;-73
2022/01/24 06:32:43;;;;;;;17.30;12.30;;;-2.60;99.90;;;;;;4991807;28;20580;-67
2022/01/24 06:35:15;;;;;;;20.75;9.48;;;-2.70;99.90;;;;;;4992048;28;20677;-73
2022/01/24 06:37:43;;;;;;;18.25;11.68;;;-2.90;99.90;;;;;;4992376;28;20223;-67
2022/01/24 06:40:14;;;;;;;15.77;10.30;;;-3.00;99.90;;;;;;4991822;28;20180;-67
2022/01/24 06:42:42;;;;;;;17.02;10.50;;;-3.10;99.90;;;;;;4992210;28;20203;-67
2022/01/24 06:45:16;;;;;;;15.90;9.00;;;-3.20;99.90;;;;;;4992603;28;20682;-73
2022/01/24 06:47:44;;;;;;;13.82;9.00;;;-3.20;99.90;;;;;;4991983;28;20558;-67
2022/01/24 06:50:11;;;;;;;16.60;12.13;;;-3.20;99.90;;;;;;4991720;28;20211;-73
2022/01/24 06:52:41;;;;;;;19.85;10.10;;;-3.30;99.90;;;;;;4990529;28;20204;-73
2022/01/24 06:55:09;;;;;;;18.98;11.70;;;-3.30;99.90;;;;;;4990299;28;20192;-67
2022/01/24 06:57:35;;;;;;;15.73;9.77;;;-3.30;99.90;;;;;;4989859;28;20195;-67
2022/01/24 07:00:11;;;;;;;17.83;9.63;;;-3.20;99.90;;;;;;4991965;28;20180;-73
2022/01/24 07:06:20;;;;;;;21.73;13.00;;;-3.20;99.90;;;;;;4993137;28;20355;-67
2022/01/24 07:08:51;;;;;;;14.98;10.50;;;-3.20;99.90;;;;;;5066976;23;20230;-89
2022/01/24 07:11:17;;;;;;;17.60;11.70;;;-3.20;99.90;;;;;;5024331;28;20190;-87
2022/01/24 07:13:43;;;;;;;24.00;13.37;;;-3.20;99.90;;;;;;5019676;28;20186;-87
2022/01/24 07:16:08;;;;;;;17.80;10.87;;;-3.10;99.90;;;;;;5016543;28;20207;-88
2022/01/24 07:21:05;;;;;;;16.47;11.03;;;-3.00;99.90;;;;;;5014727;28;20218;-89
2022/01/24 07:23:32;;;;;;;20.20;10.95;;;-2.90;99.90;;;;;;5014114;28;20446;-89
2022/01/24 07:25:57;;;;;;;20.88;13.40;;;-2.60;99.90;;;;;;5013872;28;20200;-88
2022/01/24 07:28:23;;;;;;;28.30;15.53;;;-2.20;99.90;;;;;;5022411;28;20202;-88
2022/01/24 07:30:49;;;;;;;34.22;16.33;;;-1.90;99.90;;;;;;5012846;28;20203;-89
2022/01/24 07:33:15;;;;;;;36.87;17.60;;;-1.60;99.90;;;;;;5016548;28;20183;-88
2022/01/24 07:35:42;;;;;;;33.25;17.75;;;-1.50;99.90;;;;;;5014043;28;20214;-90
2022/01/24 07:38:08;;;;;;;25.15;13.00;;;-1.40;99.90;;;;;;5018676;28;20224;-90
2022/01/24 07:40:41;;;;;;;20.23;11.43;;;-1.30;99.90;;;;;;5014050;28;20732;-88
2022/01/24 07:45:36;;;;;;;19.35;10.63;;;-1.10;99.90;;;;;;5024165;28;20564;-88
2022/01/24 07:48:03;;;;;;;19.08;10.95;;;-1.00;99.90;;;;;;5013574;28;20678;-88
2022/01/24 07:50:29;;;;;;;24.85;13.93;;;-0.80;99.90;;;;;;5013028;28;20199;-88
2022/01/24 07:52:55;;;;;;;24.13;12.90;;;-0.70;99.90;;;;;;5011026;28;20254;-88
2022/01/24 07:55:22;;;;;;;20.80;10.85;;;-0.30;99.90;;;;;;5009075;28;20569;-88
2022/01/24 07:57:48;;;;;;;23.83;14.07;;;0.20;99.90;;;;;;5010996;28;20221;-87
2022/01/24 08:00:14;;;;;;;19.60;11.03;;;0.80;99.90;;;;;;5012913;28;20201;-88
2022/01/24 08:02:40;;;;;;;15.23;11.23;;;1.20;99.90;;;;;;5010347;28;21228;-88
2022/01/24 08:05:08;;;;;;;11.93;8.70;;;1.80;99.90;;;;;;5011154;28;20454;-89
2022/01/24 08:07:34;;;;;;;16.73;10.00;;;2.30;99.40;;;;;;5012687;28;20709;-88
2022/01/24 08:10:00;;;;;;;16.45;10.73;;;2.90;98.80;;;;;;5013618;28;20187;-89
2022/01/24 08:12:26;;;;;;;18.53;11.60;;;3.30;97.10;;;;;;5013008;28;20187;-90
2022/01/24 08:14:52;;;;;;;17.97;11.53;;;3.80;96.10;;;;;;5008987;28;20427;-89
2022/01/24 08:17:18;;;;;;;19.23;10.50;;;4.40;95.10;;;;;;5017340;28;20186;-88
2022/01/24 08:19:45;;;;;;;18.13;10.43;;;5.00;93.70;;;;;;5025479;28;20641;-90
2022/01/24 08:22:12;;;;;;;21.25;10.93;;;5.60;92.50;;;;;;5011207;28;20180;-90
2022/01/24 08:24:39;;;;;;;12.95;9.10;;;6.30;90.90;;;;;;5010980;28;20639;-89
2022/01/24 08:27:05;;;;;;;13.48;9.73;;;6.60;89.90;;;;;;5011682;28;20266;-90
2022/01/24 08:29:30;;;;;;;21.00;13.82;;;7.10;88.60;;;;;;5014096;28;20546;-89
2022/01/24 08:31:56;;;;;;;15.70;9.73;;;7.60;85.70;;;;;;5015516;28;20175;-90
2022/01/24 08:34:22;;;;;;;21.00;11.97;;;8.10;83.30;;;;;;5015676;28;20179;-89
2022/01/24 08:36:47;;;;;;;74.53;33.73;;;8.50;83.40;;;;;;5005726;28;20171;-88
2022/01/24 08:39:14;;;;;;;20.90;12.90;;;9.00;80.70;;;;;;5009947;28;20191;-90
2022/01/24 08:42:03;;;;;;;19.20;11.43;;;9.30;78.50;;;;;;5011423;28;20195;-90
2022/01/24 08:46:57;;;;;;;18.13;10.27;;;10.10;75.50;;;;;;5015695;28;20218;-86
2022/01/24 08:49:23;;;;;;;12.67;9.40;;;10.30;74.20;;;;;;5013134;28;20644;-86
2022/01/24 08:51:49;;;;;;;16.33;9.70;;;10.60;72.70;;;;;;5018920;28;20413;-86
2022/01/24 08:54:15;;;;;;;18.93;11.20;;;10.70;71.80;;;;;;5036898;28;20600;-87
2022/01/24 08:56:42;;;;;;;16.58;10.23;;;10.60;72.60;;;;;;5009293;28;20411;-90
2022/01/24 08:59:07;;;;;;;21.17;12.27;;;10.30;71.10;;;;;;5006091;28;20191;-90
2022/01/24 09:01:34;;;;;;;14.83;10.63;;;9.90;71.10;;;;;;5017267;28;20199;-90
2022/01/24 09:04:00;;;;;;;13.93;10.38;;;9.50;71.20;;;;;;5006415;28;20494;-90
2022/01/24 09:06:27;;;;;;;14.90;10.83;;;9.00;72.10;;;;;;5007052;28;20760;-90
2022/01/24 09:08:56;;;;;;;12.75;9.18;;;8.80;72.60;;;;;;5009214;28;20487;-90
2022/01/24 09:11:29;;;;;;;14.93;10.35;;;8.80;72.30;;;;;;4998010;28;20242;-89
2022/01/24 09:13:56;;;;;;;15.43;10.57;;;8.70;72.50;;;;;;5015761;28;20321;-89
2022/01/24 09:16:22;;;;;;;12.68;9.60;;;8.90;72.20;;;;;;5003504;28;20211;-90
2022/01/24 09:18:51;;;;;;;18.67;11.83;;;8.90;72.00;;;;;;4994160;28;20188;-89
2022/01/24 09:21:17;;;;;;;15.35;10.82;;;8.90;73.20;;;;;;4986620;28;20695;-89
2022/01/24 09:23:43;;;;;;;18.50;11.05;;;8.90;73.00;;;;;;5010334;28;20544;-89
2022/01/24 09:26:09;;;;;;;12.17;9.60;;;9.10;73.20;;;;;;4990337;28;20294;-89
2022/01/24 09:28:35;;;;;;;14.97;10.57;;;9.20;71.70;;;;;;5002399;28;20403;-88
2022/01/24 09:31:01;;;;;;;14.57;9.93;;;9.20;71.80;;;;;;5010548;28;20472;-89
2022/01/24 09:33:27;;;;;;;14.07;10.73;;;9.00;70.90;;;;;;5012709;28;20452;-89
2022/01/24 09:35:58;;;;;;;16.15;11.30;;;9.00;73.50;;;;;;5016928;28;20206;-89
2022/01/24 09:38:30;;;;;;;14.07;9.90;;;9.10;71.50;;;;;;5010582;28;20186;-90
2022/01/24 09:40:57;;;;;;;14.50;10.38;;;9.00;70.10;;;;;;5019349;28;20195;-89
2022/01/24 09:43:23;;;;;;;14.32;9.80;;;9.10;70.90;;;;;;5012482;28;20589;-89
2022/01/24 09:45:49;;;;;;;13.98;10.45;;;9.00;71.80;;;;;;5028959;28;20221;-88
2022/01/24 09:48:16;;;;;;;13.85;9.60;;;9.10;71.30;;;;;;5010701;28;20187;-88
2022/01/24 09:50:43;;;;;;;14.20;10.65;;;9.30;69.70;;;;;;5011714;28;20202;-88
2022/01/24 09:53:09;;;;;;;14.60;9.85;;;9.40;68.50;;;;;;5012262;28;20637;-88
2022/01/24 09:55:35;;;;;;;18.60;12.03;;;9.40;68.10;;;;;;5011044;28;20272;-88
2022/01/24 09:58:00;;;;;;;16.10;12.57;;;9.50;68.30;;;;;;5012341;28;20205;-87
2022/01/24 10:00:27;;;;;;;15.83;11.27;;;9.80;67.60;;;;;;5016928;28;20434;-88
2022/01/24 10:02:54;;;;;;;17.83;9.80;;;10.00;66.30;;;;;;5010221;28;20198;-88
2022/01/24 10:05:26;;;;;;;17.92;11.63;;;10.20;65.90;;;;;;5013830;28;20229;-88
2022/01/24 10:07:55;;;;;;;12.13;9.68;;;10.10;66.40;;;;;;5018436;28;20257;-87
2022/01/24 10:10:45;;;;;;;11.65;9.23;;;10.00;66.00;;;;;;5020769;28;20567;-88
2022/01/24 10:19:09;;;;;;;13.98;10.50;;;9.40;65.10;;;;;;5021795;28;20198;-89
2022/01/24 10:21:50;;;;;;;12.48;9.73;;;9.10;66.60;;;;;;5011369;28;20710;-89
2022/01/24 10:24:40;;;;;;;14.18;9.90;;;8.70;65.90;;;;;;5003281;28;20207;-88
2022/01/24 10:27:10;;;;;;;10.88;8.80;;;8.30;66.10;;;;;;5003112;28;20207;-88
2022/01/24 10:29:51;;;;;;;17.50;9.85;;;7.80;67.60;;;;;;5008229;28;20308;-89
2022/01/24 10:32:36;;;;;;;11.35;7.90;;;7.40;67.60;;;;;;5006920;28;20195;-88
2022/01/24 10:35:31;;;;;;;12.77;8.20;;;7.00;68.60;;;;;;5004332;28;20195;-88
2022/01/24 10:38:24;;;;;;;13.40;8.90;;;6.70;69.30;;;;;;5014207;28;20183;-89
2022/01/24 10:41:08;;;;;;;19.45;10.40;;;6.20;70.00;;;;;;5022460;28;20183;-89
2022/01/24 10:43:35;;;;;;;14.68;9.55;;;6.00;70.40;;;;;;5005411;28;20190;-88
2022/01/24 10:46:01;;;;;;;15.93;9.75;;;5.90;70.60;;;;;;5009090;28;20297;-89
2022/01/24 10:48:30;;;;;;;12.73;8.98;;;5.70;71.10;;;;;;5014645;28;20191;-88
2022/01/24 10:51:23;;;;;;;12.95;8.98;;;5.50;71.50;;;;;;5014381;28;20656;-87
2022/01/24 10:53:54;;;;;;;13.57;9.48;;;5.40;72.00;;;;;;5009416;28;20195;-88
2022/01/24 10:56:30;;;;;;;14.63;8.77;;;5.30;72.70;;;;;;5014388;28;20199;-89
2022/01/24 10:59:11;;;;;;;16.00;8.80;;;5.20;72.30;;;;;;5030232;28;20187;-88
2022/01/24 11:01:38;;;;;;;13.90;9.10;;;5.10;72.70;;;;;;5012409;28;20210;-88
2022/01/24 11:04:07;;;;;;;15.63;9.80;;;5.00;72.50;;;;;;5012070;28;20230;-89
2022/01/24 11:06:41;;;;;;;15.02;9.68;;;4.90;73.60;;;;;;5030501;28;20203;-89
2022/01/24 11:09:22;;;;;;;12.27;8.75;;;4.90;74.50;;;;;;5015915;28;20712;-90
2022/01/24 11:12:00;;;;;;;13.90;8.75;;;4.90;75.00;;;;;;5017024;28;20252;-89
2022/01/24 11:14:28;;;;;;;11.13;8.30;;;4.90;73.80;;;;;;5020851;28;20187;-89
2022/01/24 11:16:57;;;;;;;9.57;4.57;;;4.80;73.80;;;;;;5019381;28;20186;-89
2022/01/24 11:19:33;;;;;;;16.02;9.88;;;4.80;73.70;;;;;;5025687;28;20254;-88
2022/01/24 11:22:00;;;;;;;18.75;11.90;;;4.70;74.10;;;;;;5032419;28;20238;-88
2022/01/24 11:24:37;;;;;;;18.25;10.10;;;4.70;74.10;;;;;;5017622;28;20207;-90
2022/01/24 11:27:07;;;;;;;11.45;8.95;;;4.60;75.10;;;;;;5027900;28;20168;-88
2022/01/24 11:29:34;;;;;;;12.20;9.20;;;4.70;74.40;;;;;;5016503;28;20229;-89
2022/01/24 11:32:38;;;;;;;16.48;9.80;;;4.70;74.20;;;;;;5014328;28;20182;-89
2022/01/24 11:35:05;;;;;;;15.23;10.43;;;4.70;74.00;;;;;;5014376;28;20257;-89
2022/01/24 11:37:42;;;;;;;15.02;9.68;;;4.70;75.50;;;;;;5012510;28;20245;-89
2022/01/24 11:40:20;;;;;;;17.33;9.88;;;4.80;74.10;;;;;;5015434;28;20297;-88
2022/01/24 11:42:47;;;;;;;10.25;7.22;;;4.80;73.30;;;;;;5012283;28;20281;-88
2022/01/24 11:45:18;;;;;;;14.05;9.63;;;4.90;73.20;;;;;;5027823;28;20230;-89
2022/01/24 11:47:46;;;;;;;15.25;9.82;;;4.90;73.00;;;;;;5006680;28;20191;-88
2022/01/24 11:50:24;;;;;;;16.48;11.43;;;4.90;73.60;;;;;;5012008;28;20208;-89
2022/01/24 11:52:54;;;;;;;13.50;10.20;;;4.90;73.80;;;;;;5015624;28;20257;-88
2022/01/24 11:55:34;;;;;;;11.82;8.82;;;5.00;74.70;;;;;;5010417;28;20298;-88
2022/01/24 11:58:05;;;;;;;12.25;8.82;;;5.00;74.60;;;;;;5007435;28;20218;-88
2022/01/24 12:00:38;;;;;;;11.15;8.25;;;5.00;74.10;;;;;;5012754;28;20205;-89
2022/01/24 12:03:15;;;;;;;14.32;9.50;;;5.00;73.00;;;;;;5007536;28;20215;-89
2022/01/24 12:05:48;;;;;;;14.65;9.27;;;5.00;73.30;;;;;;5028425;28;20211;-89
2022/01/24 12:08:34;;;;;;;11.13;9.00;;;5.00;72.80;;;;;;5015253;28;20921;-88
2022/01/24 12:11:18;;;;;;;15.65;9.98;;;5.00;72.60;;;;;;5011041;28;20293;-89
2022/01/24 12:13:47;;;;;;;11.38;8.82;;;4.90;73.20;;;;;;5012804;28;20183;-88
2022/01/24 12:16:15;;;;;;;18.55;10.60;;;4.90;74.70;;;;;;5013714;28;20290;-89
2022/01/24 12:18:40;;;;;;;19.65;11.35;;;4.90;73.10;;;;;;5011225;28;20667;-89
2022/01/24 12:21:14;;;;;;;13.83;9.37;;;4.90;72.00;;;;;;5027402;28;20207;-88
2022/01/24 12:23:49;;;;;;;16.60;10.30;;;4.90;71.70;;;;;;5020438;28;20322;-89
2022/01/24 12:26:15;;;;;;;14.45;9.98;;;4.80;73.30;;;;;;5006765;28;20211;-88
2022/01/24 12:28:47;;;;;;;14.00;9.50;;;4.80;73.20;;;;;;5008909;28;20558;-90
2022/01/24 12:31:38;;;;;;;18.25;11.57;;;4.80;72.40;;;;;;5026421;28;20203;-89
2022/01/24 12:34:14;;;;;;;11.43;9.07;;;4.80;72.30;;;;;;5007461;28;20180;-88
2022/01/24 12:36:50;;;;;;;14.27;9.75;;;4.70;72.80;;;;;;5013156;28;20194;-89
2022/01/24 12:39:53;;;;;;;12.68;8.90;;;4.70;73.30;;;;;;5006476;28;20183;-88
2022/01/24 12:42:40;;;;;;;21.58;13.82;;;4.60;73.50;;;;;;5000997;28;20648;-89
2022/01/24 12:48:18;;;;;;;12.63;9.10;;;4.60;73.10;;;;;;5006447;28;20198;-88
2022/01/24 12:50:46;;;;;;;13.52;10.00;;;4.50;73.60;;;;;;5004650;28;20606;-88
2022/01/24 12:53:14;;;;;;;15.07;9.40;;;4.50;74.10;;;;;;5011702;28;20187;-88
2022/01/24 12:55:42;;;;;;;15.93;11.18;;;4.50;74.60;;;;;;5026400;28;20198;-88
2022/01/24 12:58:07;;;;;;;12.80;9.43;;;4.50;76.00;;;;;;5017253;28;20183;-89
2022/01/24 13:00:34;;;;;;;12.53;9.60;;;4.60;75.50;;;;;;5016058;28;20611;-90
2022/01/24 13:03:01;;;;;;;17.25;12.25;;;4.60;75.10;;;;;;5011937;28;20263;-90
2022/01/24 13:05:28;;;;;;;14.00;9.38;;;4.60;74.60;;;;;;5029398;28;20219;-89
2022/01/24 13:07:57;;;;;;;16.00;10.13;;;4.80;81.50;;;;;;5018713;28;20219;-89
2022/01/24 13:10:30;;;;;;;16.55;10.40;;;4.90;78.70;;;;;;5015935;28;20280;-90
2022/01/24 13:13:11;;;;;;;15.48;10.63;;;4.90;75.30;;;;;;5011957;28;20274;-89
2022/01/24 13:21:17;;;;;;;25.58;18.13;;;4.70;75.30;;;;;;5011129;28;20261;-90
2022/01/24 13:23:51;;;;;;;33.78;22.60;;;4.70;75.10;;;;;;5012940;28;20248;-90
2022/01/24 13:26:17;;;;;;;19.27;12.75;;;4.70;75.50;;;;;;5010680;28;20230;-90
2022/01/24 13:28:44;;;;;;;18.10;11.07;;;4.80;75.00;;;;;;5005302;28;20202;-90
2022/01/24 13:31:10;;;;;;;17.50;9.60;;;4.70;74.80;;;;;;5012104;28;20207;-91
2022/01/24 13:33:40;;;;;;;17.70;11.00;;;4.60;75.50;;;;;;5009733;28;20694;-90
2022/01/24 13:36:08;;;;;;;25.25;17.48;;;4.60;75.50;;;;;;5002459;28;20452;-90
2022/01/24 13:38:37;;;;;;;26.67;16.45;;;4.60;75.40;;;;;;5017738;28;20194;-89
2022/01/24 13:41:14;;;;;;;26.05;15.48;;;4.60;75.30;;;;;;5005292;28;20210;-90
2022/01/24 13:43:50;;;;;;;25.33;16.55;;;4.70;75.30;;;;;;5002872;28;20179;-90
2022/01/24 13:46:25;;;;;;;16.52;11.30;;;4.70;74.80;;;;;;5010485;28;20242;-89
2022/01/24 13:48:57;;;;;;;18.52;12.50;;;4.70;74.40;;;;;;5006888;28;20236;-90
2022/01/24 13:51:26;;;;;;;27.13;15.10;;;4.70;74.90;;;;;;5012016;28;20203;-90
2022/01/24 13:53:51;;;;;;;16.73;10.95;;;4.70;75.00;;;;;;5014549;28;20203;-90
2022/01/24 13:56:33;;;;;;;26.03;14.73;;;4.80;74.60;;;;;;5013855;28;20210;-90
2022/01/24 13:59:16;;;;;;;14.20;9.88;;;4.90;75.60;;;;;;5018986;28;20274;-90
2022/01/24 14:02:01;;;;;;;12.45;7.78;;;5.00;74.70;;;;;;5005659;28;20191;-91
2022/01/24 14:04:34;;;;;;;15.20;9.25;;;5.20;73.30;;;;;;5009006;28;20269;-90
2022/01/24 14:07:16;;;;;;;20.38;13.50;;;5.40;73.50;;;;;;5009252;28;20187;-90
2022/01/24 14:09:41;;;;;;;19.17;12.35;;;5.50;73.00;;;;;;5008195;28;20277;-90
2022/01/24 14:12:11;;;;;;;18.67;13.07;;;5.70;74.00;;;;;;5006923;28;20202;-90
2022/01/24 14:14:48;;;;;;;15.15;9.85;;;5.90;74.00;;;;;;5022178;28;20698;-90
2022/01/24 14:17:27;;;;;;;14.50;9.27;;;6.20;72.90;;;;;;5009198;28;20191;-91
2022/01/24 14:19:55;;;;;;;11.82;7.95;;;6.50;73.00;;;;;;5012109;28;20309;-90
2022/01/24 14:22:22;;;;;;;12.30;7.60;;;6.70;71.90;;;;;;5020884;28;20175;-90
2022/01/24 14:24:57;;;;;;;11.32;8.57;;;6.90;71.20;;;;;;5015388;28;20229;-90
2022/01/24 14:27:44;;;;;;;14.85;11.00;;;7.20;70.10;;;;;;5018156;28;20185;-89
2022/01/24 14:30:15;;;;;;;14.75;10.60;;;7.50;71.00;;;;;;5018988;28;20214;-90
2022/01/24 14:33:01;;;;;;;18.20;10.98;;;7.80;70.00;;;;;;5013755;28;20183;-89
2022/01/24 14:35:28;;;;;;;20.33;13.68;;;8.00;68.60;;;;;;5010520;28;20619;-90
2022/01/24 14:37:55;;;;;;;20.30;11.77;;;8.10;68.10;;;;;;5012020;28;20179;-90
2022/01/24 14:40:34;;;;;;;18.95;12.80;;;8.10;68.60;;;;;;5009911;28;20207;-90
2022/01/24 14:44:53;;;;;;;22.98;14.32;;;8.10;68.30;;;;;;5013015;28;20187;-89
2022/01/24 14:45:46;;;;;;;44.05;21.15;;;8.10;68.40;;;;;;5020937;28;20317;-89
2022/01/24 14:48:12;;;;;;;30.88;16.73;;;8.10;68.30;;;;;;5019017;28;20183;-91
2022/01/24 14:50:38;;;;;;;20.65;12.45;;;7.90;68.30;;;;;;5017130;28;20230;-89
2022/01/24 14:53:07;;;;;;;28.67;14.93;;;7.70;67.70;;;;;;5017655;28;20637;-89